createdAt,value
2017-07-21T00:01:30.259Z,8.47
2017-07-21T00:03:57.647Z,8.37
2017-07-21T00:06:25.046Z,8.77
2017-07-21T00:08:52.435Z,8.77
2017-07-21T00:11:20.107Z,7.07
2017-07-21T00:13:47.491Z,8.53
2017-07-21T00:16:14.891Z,7.53
2017-07-21T00:18:42.279Z,7.67
2017-07-21T00:21:09.937Z,7.17
2017-07-21T00:23:37.319Z,6.00
2017-07-21T00:26:05.048Z,6.37
2017-07-21T00:28:32.708Z,5.33
2017-07-21T00:31:00.102Z,5.23
2017-07-21T00:33:27.830Z,7.27
2017-07-21T00:35:55.222Z,5.50
2017-07-21T00:38:22.620Z,5.27
2017-07-21T00:40:50.019Z,5.30
2017-07-21T00:43:17.422Z,5.00
2017-07-21T00:45:44.810Z,5.57
2017-07-21T00:48:12.229Z,5.80
2017-07-21T00:50:39.838Z,5.20
2017-07-21T00:53:07.238Z,6.57
2017-07-21T00:55:34.622Z,4.83
2017-07-21T00:58:02.023Z,4.57
2017-07-21T01:00:29.423Z,5.90
2017-07-21T01:02:56.814Z,4.97
2017-07-21T01:05:24.203Z,5.20
2017-07-21T01:07:51.614Z,5.57
2017-07-21T01:10:19.012Z,5.30
2017-07-21T01:12:46.399Z,4.57
2017-07-21T01:15:13.795Z,4.93
2017-07-21T01:17:41.187Z,5.60
2017-07-21T01:20:08.586Z,5.00
2017-07-21T01:22:35.980Z,5.43
2017-07-21T01:25:03.699Z,5.70
2017-07-21T01:27:31.095Z,5.63
2017-07-21T01:29:58.500Z,6.60
2017-07-21T01:32:25.883Z,8.23
2017-07-21T01:34:53.287Z,8.10
2017-07-21T01:37:20.674Z,7.23
2017-07-21T01:39:48.067Z,8.60
2017-07-21T01:42:15.462Z,6.20
2017-07-21T01:44:42.851Z,7.47
2017-07-21T01:47:10.256Z,7.03
2017-07-21T01:49:37.648Z,7.90
2017-07-21T01:52:05.039Z,7.40
2017-07-21T01:54:32.430Z,6.40
2017-07-21T01:56:59.827Z,6.60
2017-07-21T01:59:27.226Z,6.40
2017-07-21T02:01:54.620Z,6.60
2017-07-21T02:04:22.014Z,6.20
2017-07-21T02:06:49.664Z,7.13
2017-07-21T02:09:17.036Z,7.00
2017-07-21T02:11:44.435Z,6.00
2017-07-21T02:14:11.823Z,6.33
2017-07-21T02:16:39.232Z,7.23
2017-07-21T02:19:06.619Z,6.70
2017-07-21T02:21:34.038Z,6.07
2017-07-21T02:24:01.419Z,6.40
2017-07-21T02:26:29.091Z,5.80
2017-07-21T02:28:56.490Z,5.93
2017-07-21T02:31:23.902Z,5.67
2017-07-21T02:33:51.302Z,5.43
2017-07-21T02:36:18.695Z,5.77
2017-07-21T02:38:46.111Z,5.77
2017-07-21T02:41:13.497Z,5.07
2017-07-21T02:43:40.902Z,5.07
2017-07-21T02:46:08.300Z,5.30
2017-07-21T02:48:35.686Z,5.03
2017-07-21T02:51:03.083Z,6.00
2017-07-21T02:53:30.489Z,5.10
2017-07-21T02:55:57.896Z,5.63
2017-07-21T02:58:25.308Z,5.57
2017-07-21T03:00:52.695Z,6.20
2017-07-21T03:03:20.083Z,5.37
2017-07-21T03:05:47.490Z,6.33
2017-07-21T03:08:14.887Z,6.70
2017-07-21T03:10:42.283Z,5.67
2017-07-21T03:13:09.679Z,7.17
2017-07-21T03:15:37.083Z,5.87
2017-07-21T03:18:04.479Z,5.30
2017-07-21T03:20:32.111Z,4.67
2017-07-21T03:23:11.653Z,5.00
2017-07-21T03:25:39.059Z,5.70
2017-07-21T03:28:06.439Z,4.80
2017-07-21T03:30:34.124Z,5.10
2017-07-21T03:33:01.511Z,4.80
2017-07-21T03:35:28.899Z,3.87
2017-07-21T03:37:56.295Z,4.50
2017-07-21T03:40:23.950Z,4.10
2017-07-21T03:42:51.352Z,4.70
2017-07-21T03:45:18.739Z,4.33
2017-07-21T03:47:46.147Z,5.10
2017-07-21T03:50:13.535Z,5.10
2017-07-21T03:52:40.943Z,4.03
2017-07-21T03:55:08.319Z,3.93
2017-07-21T03:57:35.718Z,3.60
2017-07-21T04:00:03.119Z,4.03
2017-07-21T04:02:30.523Z,4.57
2017-07-21T04:04:57.912Z,3.83
2017-07-21T04:07:25.311Z,3.87
2017-07-21T04:09:52.703Z,3.40
2017-07-21T04:12:20.087Z,3.90
2017-07-21T04:14:47.478Z,3.90
2017-07-21T04:17:14.862Z,3.60
2017-07-21T04:19:42.272Z,3.90
2017-07-21T04:22:09.664Z,3.70
2017-07-21T04:24:37.086Z,4.50
2017-07-21T04:27:04.450Z,4.33
2017-07-21T04:29:31.850Z,4.23
2017-07-21T04:31:59.251Z,5.10
2017-07-21T04:34:26.638Z,4.20
2017-07-21T04:36:54.020Z,4.33
2017-07-21T04:39:21.421Z,5.90
2017-07-21T04:41:48.819Z,5.93
2017-07-21T04:44:16.227Z,5.87
2017-07-21T04:46:43.924Z,5.83
2017-07-21T04:51:31.295Z,5.83
2017-07-21T04:53:58.681Z,7.97
2017-07-21T04:56:26.403Z,6.83
2017-07-21T04:58:53.796Z,6.10
2017-07-21T05:01:21.254Z,8.10
2017-07-21T05:03:48.634Z,8.43
2017-07-21T05:06:16.141Z,7.90
2017-07-21T05:08:43.607Z,9.37
2017-07-21T05:11:10.989Z,8.70
2017-07-21T05:13:38.388Z,8.10
2017-07-21T05:16:05.787Z,8.50
2017-07-21T05:18:33.213Z,8.70
2017-07-21T05:21:00.685Z,9.03
2017-07-21T05:23:28.063Z,7.70
2017-07-21T05:25:55.454Z,8.30
2017-07-21T05:28:22.850Z,8.53
2017-07-21T05:30:50.430Z,6.87
2017-07-21T05:33:17.860Z,8.00
2017-07-21T05:35:45.250Z,7.33
2017-07-21T05:38:12.640Z,6.60
2017-07-21T05:40:40.047Z,7.20
2017-07-21T05:43:07.482Z,6.80
2017-07-21T05:45:34.870Z,7.10
2017-07-21T05:48:02.294Z,7.80
2017-07-21T05:50:29.687Z,6.67
2017-07-21T05:52:57.095Z,5.87
2017-07-21T05:55:24.480Z,5.60
2017-07-21T05:57:51.890Z,6.10
2017-07-21T06:00:19.280Z,6.23
2017-07-21T06:02:46.690Z,5.80
2017-07-21T06:05:14.091Z,6.87
2017-07-21T06:07:41.474Z,6.03
2017-07-21T06:10:08.876Z,6.30
2017-07-21T06:12:36.267Z,5.67
2017-07-21T06:15:03.891Z,4.80
2017-07-21T06:17:31.271Z,4.27
2017-07-21T06:19:58.679Z,4.30
2017-07-21T06:22:26.062Z,4.07
2017-07-21T06:24:53.464Z,4.17
2017-07-21T06:27:20.855Z,4.07
2017-07-21T06:29:48.255Z,3.70
2017-07-21T06:32:15.647Z,3.27
2017-07-21T06:34:43.060Z,3.77
2017-07-21T06:37:10.467Z,3.67
2017-07-21T06:39:37.859Z,3.63
2017-07-21T06:42:05.262Z,3.33
2017-07-21T06:44:32.652Z,3.00
2017-07-21T06:47:00.259Z,3.30
2017-07-21T06:49:27.651Z,3.33
2017-07-21T06:51:55.051Z,4.10
2017-07-21T06:54:22.443Z,2.50
2017-07-21T06:56:50.138Z,2.60
2017-07-21T06:59:17.518Z,2.63
2017-07-21T07:01:45.156Z,3.07
2017-07-21T07:04:12.551Z,2.87
2017-07-21T07:06:39.972Z,2.50
2017-07-21T07:09:07.343Z,3.07
2017-07-21T07:11:34.955Z,2.60
2017-07-21T07:14:02.347Z,2.40
2017-07-21T07:16:29.750Z,2.50
2017-07-21T07:18:57.346Z,2.20
2017-07-21T07:21:24.758Z,2.87
2017-07-21T07:23:52.144Z,2.00
2017-07-21T07:26:19.526Z,3.07
2017-07-21T07:28:47.180Z,2.60
2017-07-21T07:31:14.571Z,2.00
2017-07-21T07:33:41.964Z,2.33
2017-07-21T07:36:09.351Z,1.80
2017-07-21T07:38:36.756Z,2.00
2017-07-21T07:41:04.147Z,2.27
2017-07-21T07:43:31.545Z,1.70
2017-07-21T07:45:58.948Z,2.60
2017-07-21T07:48:26.347Z,2.50
2017-07-21T07:50:53.735Z,2.43
2017-07-21T07:53:21.139Z,1.90
2017-07-21T07:55:48.518Z,1.80
2017-07-21T07:58:15.909Z,2.20
2017-07-21T08:00:43.307Z,2.20
2017-07-21T08:03:10.703Z,2.17
2017-07-21T08:05:38.111Z,2.87
2017-07-21T08:08:05.499Z,2.17
2017-07-21T08:10:33.119Z,2.30
2017-07-21T08:13:00.502Z,2.50
2017-07-21T08:15:27.895Z,2.00
2017-07-21T08:17:55.286Z,1.80
2017-07-21T08:20:22.690Z,2.33
2017-07-21T08:22:50.078Z,2.67
2017-07-21T08:25:17.473Z,2.30
2017-07-21T08:27:44.870Z,2.30
2017-07-21T08:30:12.262Z,2.13
2017-07-21T08:32:39.647Z,2.50
2017-07-21T08:35:07.056Z,1.90
2017-07-21T08:37:34.442Z,2.20
2017-07-21T08:40:02.087Z,2.20
2017-07-21T08:42:29.748Z,1.97
2017-07-21T08:44:57.407Z,2.20
2017-07-21T08:47:24.801Z,1.77
2017-07-21T08:49:52.183Z,2.10
2017-07-21T08:52:19.590Z,1.47
2017-07-21T08:54:46.965Z,1.50
2017-07-21T08:57:14.369Z,2.30
2017-07-21T08:59:41.743Z,1.80
2017-07-21T09:02:09.153Z,2.07
2017-07-21T09:04:36.532Z,1.97
2017-07-21T09:07:03.930Z,2.00
2017-07-21T09:09:31.319Z,1.77
2017-07-21T09:11:58.753Z,1.30
2017-07-21T09:14:26.122Z,1.20
2017-07-21T09:16:53.515Z,1.07
2017-07-21T09:19:20.915Z,1.83
2017-07-21T09:21:48.308Z,2.30
2017-07-21T09:24:15.719Z,1.30
2017-07-21T09:26:43.714Z,1.60
2017-07-21T09:29:11.114Z,1.90
2017-07-21T09:31:38.707Z,1.77
2017-07-21T09:34:06.117Z,1.20
2017-07-21T09:36:33.494Z,1.60
2017-07-21T09:39:01.154Z,1.47
2017-07-21T09:41:28.817Z,1.77
2017-07-21T09:43:56.410Z,1.40
2017-07-21T09:46:23.814Z,1.20
2017-07-21T09:48:51.203Z,1.83
2017-07-21T09:51:18.611Z,1.67
2017-07-21T09:53:46.008Z,1.43
2017-07-21T09:56:13.407Z,1.30
2017-07-21T09:58:40.790Z,1.20
2017-07-21T10:01:08.466Z,1.60
2017-07-21T10:03:35.863Z,1.10
2017-07-21T10:06:03.259Z,1.67
2017-07-21T10:08:30.934Z,2.00
2017-07-21T10:10:58.349Z,1.20
2017-07-21T10:13:25.733Z,1.60
2017-07-21T10:15:53.127Z,1.57
2017-07-21T10:18:20.526Z,1.57
2017-07-21T10:20:47.910Z,2.10
2017-07-21T10:23:15.306Z,1.37
2017-07-21T10:25:42.695Z,2.07
2017-07-21T10:28:10.338Z,1.80
2017-07-21T10:30:37.710Z,1.30
2017-07-21T10:33:05.107Z,1.37
2017-07-21T10:35:32.498Z,1.43
2017-07-21T10:37:59.891Z,1.53
2017-07-21T10:40:27.566Z,1.67
2017-07-21T10:42:54.979Z,1.67
2017-07-21T10:45:22.362Z,2.00
2017-07-21T10:47:49.752Z,1.37
2017-07-21T10:50:17.153Z,1.43
2017-07-21T10:52:44.544Z,1.70
2017-07-21T10:55:11.936Z,1.43
2017-07-21T10:57:39.321Z,1.67
2017-07-21T11:00:06.743Z,1.70
2017-07-21T11:02:34.123Z,1.57
2017-07-21T11:05:01.523Z,1.30
2017-07-21T11:07:28.918Z,1.30
2017-07-21T11:09:56.311Z,1.23
2017-07-21T11:12:23.707Z,1.27
2017-07-21T11:14:51.327Z,1.50
2017-07-21T11:17:18.718Z,1.40
2017-07-21T11:19:46.131Z,1.93
2017-07-21T11:22:13.519Z,1.30
2017-07-21T11:24:40.934Z,1.50
2017-07-21T11:27:08.321Z,2.10
2017-07-21T11:29:35.714Z,1.63
2017-07-21T11:32:03.123Z,1.97
2017-07-21T11:34:30.511Z,1.43
2017-07-21T11:36:57.912Z,1.30
2017-07-21T11:39:25.304Z,1.83
2017-07-21T11:41:52.703Z,1.33
2017-07-21T11:44:20.091Z,1.30
2017-07-21T11:46:47.766Z,0.87
2017-07-21T11:49:15.156Z,1.40
2017-07-21T11:51:42.560Z,1.50
2017-07-21T11:54:09.959Z,1.43
2017-07-21T11:56:37.339Z,1.90
2017-07-21T11:59:04.747Z,2.23
2017-07-21T12:01:32.204Z,1.00
2017-07-21T12:03:59.595Z,1.80
2017-07-21T12:06:26.982Z,1.30
2017-07-21T12:08:54.380Z,1.70
2017-07-21T12:11:21.775Z,1.60
2017-07-21T12:13:49.174Z,1.40
2017-07-21T12:16:16.567Z,1.53
2017-07-21T12:18:43.962Z,1.40
2017-07-21T12:21:11.347Z,1.90
2017-07-21T12:23:38.739Z,1.73
2017-07-21T12:26:06.155Z,1.43
2017-07-21T12:28:33.541Z,1.57
2017-07-21T12:31:00.938Z,1.60
2017-07-21T12:33:28.341Z,1.30
2017-07-21T12:35:55.743Z,1.97
2017-07-21T12:38:23.122Z,1.77
2017-07-21T12:40:50.506Z,1.60
2017-07-21T12:43:17.927Z,2.40
2017-07-21T12:45:45.314Z,1.80
2017-07-21T12:48:12.718Z,2.10
2017-07-21T12:50:40.122Z,1.47
2017-07-21T12:53:07.514Z,1.57
2017-07-21T12:55:34.903Z,2.43
2017-07-21T12:58:02.303Z,1.47
2017-07-21T13:00:29.686Z,1.60
2017-07-21T13:02:57.087Z,1.87
2017-07-21T13:05:24.465Z,1.70
2017-07-21T13:07:51.855Z,1.40
2017-07-21T13:10:19.238Z,1.67
2017-07-21T13:12:46.635Z,1.70
2017-07-21T13:15:14.019Z,1.93
2017-07-21T13:17:41.416Z,1.90
2017-07-21T13:20:08.808Z,1.20
2017-07-21T13:22:36.200Z,1.50
2017-07-21T13:25:03.601Z,1.87
2017-07-21T13:27:31.016Z,2.03
2017-07-21T13:29:58.400Z,1.93
2017-07-21T13:32:25.787Z,2.30
2017-07-21T13:34:53.190Z,1.53
2017-07-21T13:37:20.575Z,1.70
2017-07-21T13:39:47.979Z,2.10
2017-07-21T13:42:15.362Z,1.67
2017-07-21T13:44:42.754Z,1.30
2017-07-21T13:47:10.373Z,2.27
2017-07-21T13:49:37.774Z,2.10
2017-07-21T13:52:05.157Z,1.73
2017-07-21T13:54:32.563Z,1.87
2017-07-21T13:56:59.955Z,1.70
2017-07-21T13:59:27.359Z,1.20
2017-07-21T14:01:54.742Z,2.10
2017-07-21T14:04:22.365Z,1.43
2017-07-21T14:06:49.758Z,1.83
2017-07-21T14:09:17.151Z,2.20
2017-07-21T14:11:44.549Z,1.73
2017-07-21T14:14:11.936Z,2.53
2017-07-21T14:16:39.325Z,1.80
2017-07-21T14:19:06.712Z,2.10
2017-07-21T14:21:34.109Z,2.13
2017-07-21T14:24:01.722Z,2.30
2017-07-21T14:26:29.106Z,2.03
2017-07-21T14:28:56.501Z,2.67
2017-07-21T14:31:24.191Z,2.20
2017-07-21T14:33:51.579Z,1.60
2017-07-21T14:36:18.967Z,2.13
2017-07-21T14:38:46.366Z,1.83
2017-07-21T14:41:13.750Z,2.00
2017-07-21T14:43:41.156Z,2.77
2017-07-21T14:46:08.563Z,2.47
2017-07-21T14:48:35.954Z,1.73
2017-07-21T14:51:03.636Z,2.40
2017-07-21T14:53:31.240Z,2.10
2017-07-21T14:55:58.623Z,2.40
2017-07-21T14:58:26.023Z,2.37
2017-07-21T15:00:53.415Z,1.77
2017-07-21T15:03:20.802Z,1.90
2017-07-21T15:05:48.199Z,2.17
2017-07-21T15:08:15.594Z,2.33
2017-07-21T15:10:42.989Z,2.00
2017-07-21T15:13:10.390Z,2.70
2017-07-21T15:15:37.790Z,2.67
2017-07-21T15:18:05.166Z,1.90
2017-07-21T15:20:32.558Z,1.97
2017-07-21T15:22:59.942Z,2.17
2017-07-21T15:25:27.339Z,1.97
2017-07-21T15:27:54.732Z,2.30
2017-07-21T15:30:22.127Z,1.80
2017-07-21T15:32:49.514Z,1.93
2017-07-21T15:35:16.915Z,2.17
2017-07-21T15:37:44.315Z,2.70
2017-07-21T15:40:11.702Z,2.47
2017-07-21T15:42:39.505Z,2.10
2017-07-21T15:45:06.929Z,1.93
2017-07-21T15:47:34.315Z,2.03
2017-07-21T15:50:01.978Z,1.90
2017-07-21T15:52:29.376Z,1.90
2017-07-21T15:54:56.759Z,2.00
2017-07-21T15:57:24.159Z,2.33
2017-07-21T15:59:51.542Z,2.10
2017-07-21T16:02:18.944Z,2.20
2017-07-21T16:04:46.330Z,2.37
2017-07-21T16:07:13.970Z,1.93
2017-07-21T16:09:41.362Z,1.97
2017-07-21T16:12:09.090Z,2.00
2017-07-21T16:14:36.495Z,2.10
2017-07-21T16:17:03.884Z,1.80
2017-07-21T16:19:31.279Z,1.90
2017-07-21T16:21:58.664Z,2.40
2017-07-21T16:24:26.072Z,2.00
2017-07-21T16:26:53.467Z,2.47
2017-07-21T16:29:20.863Z,2.20
2017-07-21T16:31:48.539Z,2.03
2017-07-21T16:34:15.931Z,1.77
2017-07-21T16:36:43.321Z,2.23
2017-07-21T16:39:10.718Z,1.97
2017-07-21T16:41:38.121Z,2.20
2017-07-21T16:44:05.818Z,2.33
2017-07-21T16:46:33.215Z,2.00
2017-07-21T16:49:00.605Z,1.90
2017-07-21T16:51:27.993Z,1.90
2017-07-21T16:53:55.390Z,2.03
2017-07-21T16:56:22.787Z,1.73
2017-07-21T16:58:50.175Z,1.50
2017-07-21T17:01:17.571Z,2.10
2017-07-21T17:03:44.957Z,2.10
2017-07-21T17:06:12.366Z,1.73
2017-07-21T17:08:39.750Z,2.33
2017-07-21T17:11:07.435Z,1.53
2017-07-21T17:13:34.832Z,1.67
2017-07-21T17:16:02.246Z,1.73
2017-07-21T17:18:29.623Z,1.90
2017-07-21T17:20:57.022Z,1.83
2017-07-21T17:23:24.410Z,1.80
2017-07-21T17:25:51.802Z,2.27
2017-07-21T17:28:19.203Z,1.80
2017-07-21T17:30:46.599Z,2.13
2017-07-21T17:33:13.999Z,2.20
2017-07-21T17:35:41.387Z,3.87
2017-07-21T17:38:08.796Z,5.10
2017-07-21T17:40:36.187Z,2.27
2017-07-21T17:43:03.574Z,2.10
2017-07-21T17:45:30.975Z,2.37
2017-07-21T17:47:58.362Z,2.13
2017-07-21T17:50:25.759Z,3.13
2017-07-21T17:52:53.138Z,2.70
2017-07-21T17:55:20.539Z,2.00
2017-07-21T17:57:47.931Z,1.80
2017-07-21T18:00:15.332Z,1.83
2017-07-21T18:02:42.720Z,2.30
2017-07-21T18:05:10.355Z,1.80
2017-07-21T18:07:37.744Z,1.83
2017-07-21T18:10:05.126Z,1.97
2017-07-21T18:12:32.525Z,2.10
2017-07-21T18:14:59.912Z,1.97
2017-07-21T18:17:27.298Z,1.97
2017-07-21T18:19:54.698Z,3.10
2017-07-21T18:22:22.351Z,1.63
2017-07-21T18:24:49.733Z,2.10
2017-07-21T18:27:17.122Z,1.97
2017-07-21T18:29:44.518Z,1.80
2017-07-21T18:32:11.919Z,1.73
2017-07-21T18:34:39.305Z,2.50
2017-07-21T18:37:06.699Z,2.00
2017-07-21T18:39:34.338Z,1.90
2017-07-21T18:42:01.727Z,1.70
2017-07-21T18:44:29.350Z,2.20
2017-07-21T18:46:56.792Z,2.00
2017-07-21T18:49:24.198Z,2.07
2017-07-21T18:51:51.575Z,2.30
2017-07-21T18:54:18.979Z,2.00
2017-07-21T18:56:47.480Z,1.90
2017-07-21T18:59:14.871Z,1.43
2017-07-21T19:01:42.286Z,1.80
2017-07-21T19:04:09.687Z,2.30
2017-07-21T19:06:37.074Z,2.03
2017-07-21T19:09:04.483Z,1.77
2017-07-21T19:11:31.878Z,2.10
2017-07-21T19:13:59.286Z,2.27
2017-07-21T19:16:26.675Z,2.10
2017-07-21T19:18:54.234Z,2.17
2017-07-21T19:21:21.631Z,1.90
2017-07-21T19:23:49.020Z,2.10
2017-07-21T19:26:16.418Z,1.80
2017-07-21T19:28:43.814Z,1.60
2017-07-21T19:31:11.210Z,2.07
2017-07-21T19:33:38.607Z,2.13
2017-07-21T19:36:06.006Z,1.83
2017-07-21T19:38:33.411Z,2.10
2017-07-21T19:41:00.798Z,1.90
2017-07-21T19:43:28.187Z,2.50
2017-07-21T19:45:55.586Z,2.40
2017-07-21T19:48:22.981Z,2.07
2017-07-21T19:50:50.388Z,2.00
2017-07-21T19:53:17.784Z,2.37
2017-07-21T19:55:45.176Z,2.07
2017-07-21T19:58:12.563Z,2.13
2017-07-21T20:00:39.965Z,2.60
2017-07-21T20:03:07.438Z,2.40
2017-07-21T20:05:34.841Z,2.27
2017-07-21T20:08:02.223Z,2.73
2017-07-21T20:10:29.619Z,2.50
2017-07-21T20:12:57.010Z,2.00
2017-07-21T20:15:24.470Z,2.30
2017-07-21T20:17:51.891Z,2.57
2017-07-21T20:20:19.272Z,2.53
2017-07-21T20:22:46.777Z,2.77
2017-07-21T20:25:14.180Z,2.13
2017-07-21T20:27:41.562Z,2.50
2017-07-21T20:30:08.979Z,2.30
2017-07-21T20:32:36.564Z,2.30
2017-07-21T20:35:04.162Z,1.80
2017-07-21T20:37:31.562Z,2.60
2017-07-21T20:39:58.943Z,1.90
2017-07-21T20:42:26.342Z,2.57
2017-07-21T20:44:53.744Z,2.50
2017-07-21T20:47:21.143Z,3.30
2017-07-21T20:49:48.540Z,2.93
2017-07-21T20:52:15.918Z,2.33
2017-07-21T20:54:43.314Z,2.13
2017-07-21T20:57:10.707Z,2.73
2017-07-21T20:59:38.102Z,2.67
2017-07-21T21:02:05.506Z,2.43
2017-07-21T21:04:32.890Z,2.50
2017-07-21T21:07:00.286Z,2.90
2017-07-21T21:09:27.683Z,2.80
2017-07-21T21:11:55.079Z,2.70
2017-07-21T21:14:22.466Z,2.83
2017-07-21T21:16:49.855Z,2.20
2017-07-21T21:19:17.252Z,2.80
2017-07-21T21:21:44.641Z,2.50
2017-07-21T21:24:12.034Z,2.43
2017-07-21T21:26:39.425Z,2.53
2017-07-21T21:29:06.828Z,2.33
2017-07-21T21:31:34.209Z,2.33
2017-07-21T21:34:02.819Z,3.30
2017-07-21T21:36:30.201Z,2.40
2017-07-21T21:38:57.628Z,2.20
2017-07-21T21:41:25.018Z,2.97
2017-07-21T21:43:52.399Z,2.80
2017-07-21T21:46:20.120Z,2.07
2017-07-21T21:51:21.270Z,2.57
2017-07-21T21:53:48.941Z,2.60
2017-07-21T21:56:16.334Z,3.20
2017-07-21T21:58:43.734Z,2.60
2017-07-21T22:01:11.133Z,2.40
2017-07-21T22:03:38.519Z,2.00
2017-07-21T22:06:05.923Z,2.50
2017-07-21T22:08:33.582Z,2.67
2017-07-21T22:11:01.178Z,2.40
2017-07-21T22:13:28.566Z,2.50
2017-07-21T22:15:55.965Z,2.30
2017-07-21T22:18:28.216Z,2.57
2017-07-21T22:20:55.612Z,2.40
2017-07-21T22:23:22.994Z,2.07
2017-07-21T22:25:50.391Z,3.53
2017-07-21T22:28:17.771Z,2.57
2017-07-21T22:30:45.167Z,2.67
2017-07-21T22:33:12.551Z,2.27
2017-07-21T22:35:39.951Z,2.77
2017-07-21T22:38:07.351Z,2.60
2017-07-21T22:40:34.747Z,2.20
2017-07-21T22:43:02.136Z,2.43
2017-07-21T22:45:29.531Z,2.40
2017-07-21T22:47:56.927Z,2.70
2017-07-21T22:50:24.329Z,2.40
2017-07-21T22:52:51.715Z,2.50
2017-07-21T22:55:19.114Z,2.83
2017-07-21T22:57:46.807Z,2.57
2017-07-21T23:00:14.187Z,2.40
2017-07-21T23:02:41.587Z,2.50
2017-07-21T23:05:08.975Z,2.50
2017-07-21T23:07:36.371Z,2.50
2017-07-21T23:10:03.760Z,2.77
2017-07-21T23:12:31.154Z,1.97
2017-07-21T23:14:58.542Z,3.30
2017-07-21T23:17:26.151Z,2.70
2017-07-21T23:19:53.546Z,2.80
2017-07-21T23:22:20.939Z,2.23
2017-07-21T23:24:48.327Z,2.07
2017-07-21T23:27:15.979Z,2.10
2017-07-21T23:29:43.369Z,2.40
2017-07-21T23:32:10.760Z,2.53
2017-07-21T23:34:38.155Z,2.23
2017-07-21T23:37:05.537Z,2.40
2017-07-21T23:39:32.933Z,2.60
2017-07-21T23:42:00.318Z,2.23
2017-07-21T23:44:27.726Z,2.17
2017-07-21T23:46:55.111Z,2.40
2017-07-21T23:49:22.498Z,2.90
2017-07-21T23:51:49.895Z,2.90
2017-07-21T23:54:17.289Z,3.03
2017-07-21T23:56:45.293Z,2.83
2017-07-21T23:59:12.914Z,2.90
